Time;durP1;ratioP1;P1;durP2;ratioP2;P2;SDS_P1;SDS_P2;PMS_P1;PMS_P2;Temp;Humidity;BMP_temperature;BMP_pressure;BME280_temperature;BME280_humidity;BME280_pressure;Samples;Min_cycle;Max_cycle;Signal;HPM_P1;HPM_P2
2021/09/24 00:00:58;;;;;;;2.80;1.65;;;;;;;8.51;79.45;98786.30;1694125;82;21150;-52
2021/09/24 00:03:26;;;;;;;3.70;1.57;;;;;;;8.52;79.54;98784.02;1691989;82;21682;-53
2021/09/24 00:05:53;;;;;;;2.10;1.75;;;;;;;8.53;79.64;98771.86;1697231;81;21426;-52
2021/09/24 00:08:21;;;;;;;3.05;2.52;;;;;;;8.55;79.75;98763.73;1701358;81;21518;-52
2021/09/24 00:10:47;;;;;;;2.55;2.35;;;;;;;8.57;79.82;98769.89;1699840;81;21125;-52
2021/09/24 00:13:15;;;;;;;3.05;2.80;;;;;;;8.58;79.91;98768.94;1703310;81;21136;-52
2021/09/24 00:15:43;;;;;;;2.90;2.62;;;;;;;8.59;80.01;98760.78;1698325;81;21129;-52
2021/09/24 00:18:09;;;;;;;4.83;2.65;;;;;;;8.59;80.09;98756.76;1701837;81;21328;-52
2021/09/24 00:20:36;;;;;;;3.02;1.67;;;;;;;8.60;80.15;98746.90;1699415;81;21140;-52
2021/09/24 00:23:04;;;;;;;2.67;2.20;;;;;;;8.61;80.24;98745.95;1699053;81;21024;-53
2021/09/24 00:25:31;;;;;;;1.90;1.80;;;;;;;8.60;80.36;98738.38;1700374;81;21336;-52
2021/09/24 00:28:00;;;;;;;2.98;1.75;;;;;;;8.60;80.44;98737.03;1699708;81;21021;-52
2021/09/24 00:30:28;;;;;;;3.02;1.75;;;;;;;8.61;80.54;98728.52;1701350;81;21104;-52
2021/09/24 00:32:55;;;;;;;3.72;2.35;;;;;;;8.63;80.63;98715.41;1701578;81;21113;-52
2021/09/24 00:35:21;;;;;;;1.80;1.70;;;;;;;8.66;80.74;98709.02;1652557;84;21159;-52
2021/09/24 00:37:47;;;;;;;1.70;1.60;;;;;;;8.70;80.76;98704.72;1711286;81;21608;-52
2021/09/24 00:40:14;;;;;;;2.05;1.82;;;;;;;8.73;80.79;98703.69;1728456;81;21031;-52
2021/09/24 00:42:42;;;;;;;2.98;2.58;;;;;;;8.76;80.77;98710.70;1729304;81;21067;-52
2021/09/24 00:45:10;;;;;;;2.85;2.17;;;;;;;8.74;80.79;98708.11;1724572;81;21305;-53
2021/09/24 00:47:36;;;;;;;5.22;2.35;;;;;;;8.73;80.90;98711.27;1730781;81;21109;-52
2021/09/24 00:50:04;;;;;;;2.70;1.70;;;;;;;8.72;80.91;98704.16;1727282;81;21013;-52
2021/09/24 00:52:31;;;;;;;2.60;1.70;;;;;;;8.73;80.97;98701.00;1731363;81;20869;-52
2021/09/24 00:54:57;;;;;;;4.45;2.42;;;;;;;8.73;81.03;98694.30;1730527;81;21092;-52
2021/09/24 00:57:23;;;;;;;3.30;1.60;;;;;;;8.73;81.15;98684.44;1727780;81;21111;-52
2021/09/24 00:59:50;;;;;;;1.80;1.50;;;;;;;8.75;81.17;98674.95;1727763;81;21796;-52
2021/09/24 01:02:18;;;;;;;2.35;1.95;;;;;;;8.79;81.34;98674.28;1725880;81;21139;-52
2021/09/24 01:04:46;;;;;;;2.42;1.57;;;;;;;8.83;81.30;98663.78;1727462;81;20986;-53
2021/09/24 01:07:13;;;;;;;2.20;1.95;;;;;;;8.86;81.32;98665.78;1727724;81;21043;-53
2021/09/24 01:09:39;;;;;;;2.20;1.90;;;;;;;8.89;81.33;98664.75;1729218;81;21118;-52
2021/09/24 01:12:08;;;;;;;3.70;2.70;;;;;;;8.90;81.32;98655.75;1724538;80;21060;-53
2021/09/24 01:14:35;;;;;;;3.92;1.70;;;;;;;8.90;81.35;98655.28;1727877;81;21115;-52
2021/09/24 01:17:01;;;;;;;2.95;2.15;;;;;;;8.90;81.31;98659.77;1725015;81;21023;-52
2021/09/24 01:19:27;;;;;;;2.37;2.17;;;;;;;8.90;81.35;98656.62;1728585;81;21048;-52
2021/09/24 01:21:55;;;;;;;3.22;2.20;;;;;;;8.92;81.43;98647.14;1731307;81;21077;-52
2021/09/24 01:24:22;;;;;;;4.45;2.27;;;;;;;8.94;81.46;98642.52;1724871;81;22598;-52
2021/09/24 01:26:52;;;;;;;2.85;1.90;;;;;;;8.95;81.48;98642.44;1729140;81;20960;-51
2021/09/24 01:29:23;;;;;;;3.85;1.98;;;;;;;8.98;81.54;98624.82;1732645;80;20921;-51
2021/09/24 01:31:50;;;;;;;2.15;1.82;;;;;;;9.01;81.63;98633.18;1729357;81;21016;-52
2021/09/24 01:34:16;;;;;;;3.05;2.80;;;;;;;9.04;81.69;98619.55;1725920;81;21119;-53
2021/09/24 01:36:42;;;;;;;3.85;1.98;;;;;;;9.08;81.72;98605.87;1729417;81;22693;-52
2021/09/24 01:39:09;;;;;;;3.50;3.30;;;;;;;9.10;81.72;98605.79;1727113;81;21075;-52
2021/09/24 01:41:42;;;;;;;2.70;2.50;;;;;;;9.09;81.72;98597.34;1728280;81;21047;-53
2021/09/24 01:44:09;;;;;;;2.60;2.37;;;;;;;9.08;81.76;98601.84;1727402;81;21325;-53
2021/09/24 01:46:39;;;;;;;2.65;2.52;;;;;;;9.09;81.82;98593.31;1727609;81;21019;-52
2021/09/24 01:49:07;;;;;;;3.40;2.27;;;;;;;9.08;81.88;98588.90;1727568;81;21083;-52
2021/09/24 01:51:35;;;;;;;3.37;3.08;;;;;;;9.05;81.98;98582.36;1730755;81;21086;-53
2021/09/24 01:54:04;;;;;;;3.15;2.87;;;;;;;9.05;82.05;98587.25;1730623;81;20963;-52
2021/09/24 01:56:30;;;;;;;3.75;3.40;;;;;;;9.03;82.18;98582.45;1728569;81;20995;-51
2021/09/24 01:58:58;;;;;;;3.40;3.10;;;;;;;9.03;82.26;98574.40;1726341;81;21067;-52
2021/09/24 02:01:24;;;;;;;3.17;2.65;;;;;;;9.04;82.38;98576.61;1724169;81;21762;-52
2021/09/24 02:03:51;;;;;;;5.45;3.52;;;;;;;9.06;82.53;98568.86;1727764;81;21623;-52
2021/09/24 02:06:18;;;;;;;3.35;2.33;;;;;;;9.09;82.57;98569.16;1727168;81;21107;-52
2021/09/24 02:08:44;;;;;;;3.90;2.70;;;;;;;9.10;82.64;98557.47;1726071;81;21588;-52
2021/09/24 02:11:13;;;;;;;3.65;3.35;;;;;;;9.11;82.71;98550.64;1735308;80;20939;-52
2021/09/24 02:13:41;;;;;;;3.92;3.62;;;;;;;9.14;82.75;98548.25;1734896;81;20925;-53
2021/09/24 02:16:08;;;;;;;4.53;4.12;;;;;;;9.16;82.82;98548.16;1730930;80;20889;-52
2021/09/24 02:18:35;;;;;;;3.50;3.30;;;;;;;9.15;82.85;98532.53;1728439;81;20962;-53
2021/09/24 02:21:02;;;;;;;3.80;3.50;;;;;;;9.16;82.90;98533.39;1730300;81;20985;-52
2021/09/24 02:23:29;;;;;;;3.90;3.70;;;;;;;9.16;82.94;98522.66;1730302;81;20960;-52
2021/09/24 02:25:56;;;;;;;2.80;2.60;;;;;;;9.18;83.09;98518.06;1731117;81;21083;-52
2021/09/24 02:28:23;;;;;;;3.33;3.12;;;;;;;9.20;83.12;98518.80;1732511;81;20952;-52
2021/09/24 02:30:49;;;;;;;6.20;2.85;;;;;;;9.20;83.13;98510.27;1732809;81;20921;-53
2021/09/24 02:33:17;;;;;;;2.92;2.50;;;;;;;9.22;83.18;98507.50;1731088;81;20982;-53
2021/09/24 02:35:44;;;;;;;2.80;2.65;;;;;;;9.22;83.25;98502.13;1732068;81;21024;-52
2021/09/24 02:38:12;;;;;;;5.30;3.00;;;;;;;9.24;83.34;98496.19;1722769;81;20939;-53
2021/09/24 02:40:39;;;;;;;4.20;3.70;;;;;;;9.25;83.38;98479.99;1697541;82;21443;-52
2021/09/24 02:45:38;;;;;;;3.93;3.60;;;;;;;9.32;83.48;98470.59;1864252;75;21972;-53
2021/09/24 02:48:05;;;;;;;5.67;3.62;;;;;;;9.30;83.47;98468.95;1832348;77;21308;-52
2021/09/24 02:50:32;;;;;;;3.85;3.35;;;;;;;9.30;83.45;98476.53;1832682;77;21589;-53
2021/09/24 02:53:00;;;;;;;3.98;3.58;;;;;;;9.29;83.55;98466.74;1830024;77;20962;-52
2021/09/24 02:55:27;;;;;;;5.25;3.00;;;;;;;9.32;83.65;98469.72;1832756;77;21248;-52
2021/09/24 02:57:55;;;;;;;5.50;2.92;;;;;;;9.33;83.66;98468.28;1836040;76;20976;-52
2021/09/24 03:00:23;;;;;;;5.58;3.50;;;;;;;9.35;83.74;98468.20;1834445;77;20993;-52
2021/09/24 03:02:50;;;;;;;4.65;3.08;;;;;;;9.37;83.78;98464.91;1834922;77;21112;-52
2021/09/24 03:05:16;;;;;;;5.30;4.00;;;;;;;9.37;83.79;98456.38;1833348;76;22466;-52
2021/09/24 03:07:44;;;;;;;4.20;3.90;;;;;;;9.36;83.83;98455.98;1835209;77;22230;-51
2021/09/24 03:10:10;;;;;;;4.25;3.12;;;;;;;9.38;83.83;98450.52;1834819;77;21377;-52
2021/09/24 03:12:38;;;;;;;3.47;3.27;;;;;;;9.39;83.84;98449.56;1834429;77;21331;-52
2021/09/24 03:15:07;;;;;;;5.17;3.22;;;;;;;9.38;83.85;98436.62;1834069;77;21180;-53
2021/09/24 03:17:35;;;;;;;3.80;3.42;;;;;;;9.39;83.88;98433.45;1835798;77;20929;-52
2021/09/24 03:20:03;;;;;;;3.33;3.12;;;;;;;9.40;83.93;98430.67;1831294;76;21119;-53
2021/09/24 03:22:32;;;;;;;4.20;2.75;;;;;;;9.40;83.96;98430.67;1832792;77;21061;-53
2021/09/24 03:25:00;;;;;;;3.17;2.90;;;;;;;9.41;84.01;98424.83;1834111;76;21566;-52
2021/09/24 03:27:28;;;;;;;3.92;3.65;;;;;;;9.43;83.97;98416.20;1832766;77;21005;-52
2021/09/24 03:29:55;;;;;;;3.47;3.25;;;;;;;9.43;83.99;98406.31;1835982;76;21083;-52
2021/09/24 03:32:21;;;;;;;3.37;3.08;;;;;;;9.46;84.03;98400.72;1830961;77;21119;-51
2021/09/24 03:34:49;;;;;;;4.35;3.95;;;;;;;9.47;83.96;98393.05;1828993;77;21333;-53
2021/09/24 03:37:17;;;;;;;4.87;4.47;;;;;;;9.47;83.95;98382.79;1831445;77;21076;-52
2021/09/24 03:39:43;;;;;;;3.77;3.47;;;;;;;9.45;83.96;98378.85;1835287;76;21857;-52
2021/09/24 03:42:11;;;;;;;5.15;3.60;;;;;;;9.45;83.90;98376.65;1830247;77;21267;-52
2021/09/24 03:44:38;;;;;;;4.17;3.77;;;;;;;9.44;83.92;98369.58;1824929;77;21008;-52
2021/09/24 03:47:05;;;;;;;4.25;3.70;;;;;;;9.43;83.97;98365.17;1815300;77;20977;-53
2021/09/24 03:49:32;;;;;;;3.67;3.37;;;;;;;9.42;84.00;98357.59;1815260;77;21394;-53
2021/09/24 03:52:00;;;;;;;4.30;2.90;;;;;;;9.43;84.11;98357.97;1779619;78;21202;-51
2021/09/24 03:54:29;;;;;;;4.50;4.20;;;;;;;9.45;84.17;98348.45;1752162;80;21258;-53
2021/09/24 03:56:56;;;;;;;4.35;3.67;;;;;;;9.47;84.19;98343.84;1779989;78;20850;-52
2021/09/24 03:59:24;;;;;;;4.30;3.00;;;;;;;9.48;84.19;98335.69;1781098;78;20931;-53
2021/09/24 04:01:50;;;;;;;6.08;3.62;;;;;;;9.50;84.21;98330.22;1782473;78;21239;-53
2021/09/24 04:04:17;;;;;;;4.05;3.75;;;;;;;9.53;84.21;98328.66;1775220;78;22973;-53
2021/09/24 04:06:43;;;;;;;4.03;3.65;;;;;;;9.52;84.14;98328.30;1778326;78;22067;-52
2021/09/24 04:09:10;;;;;;;6.20;4.90;;;;;;;9.50;84.17;98322.16;1776803;78;21008;-51
2021/09/24 04:11:37;;;;;;;2.83;2.35;;;;;;;9.48;84.21;98318.23;1779182;78;20997;-53
2021/09/24 04:16:53;;;;;;;3.17;2.97;;;;;;;9.53;84.33;98295.59;1788253;78;22637;-52
2021/09/24 04:19:21;;;;;;;4.08;3.02;;;;;;;9.49;84.42;98301.64;1763706;79;20989;-51
2021/09/24 04:21:48;;;;;;;4.60;3.17;;;;;;;9.50;84.44;98293.96;1763128;79;21803;-52
2021/09/24 04:24:16;;;;;;;3.30;2.83;;;;;;;9.49;84.43;98289.07;1767015;79;21156;-52
2021/09/24 04:26:44;;;;;;;3.35;2.90;;;;;;;9.53;84.51;98276.79;1763422;79;21362;-52
2021/09/24 04:29:12;;;;;;;3.75;3.00;;;;;;;9.54;84.50;98271.77;1760011;79;21041;-53
2021/09/24 04:31:39;;;;;;;3.15;2.33;;;;;;;9.54;84.50;98269.94;1759156;79;21588;-53
2021/09/24 04:34:05;;;;;;;2.45;2.25;;;;;;;9.56;84.55;98261.78;1738304;80;21510;-52
2021/09/24 04:36:33;;;;;;;3.10;2.85;;;;;;;9.58;84.54;98251.80;1672021;83;21495;-52
2021/09/24 04:39:03;;;;;;;3.58;2.27;;;;;;;9.58;84.57;98245.95;1680418;83;21440;-51
2021/09/24 04:41:29;;;;;;;3.72;2.40;;;;;;;9.59;84.61;98246.34;1677674;83;21065;-52
2021/09/24 04:43:57;;;;;;;4.12;2.37;;;;;;;9.59;84.51;98242.78;1682984;83;21081;-52
2021/09/24 04:46:24;;;;;;;2.67;2.45;;;;;;;9.58;84.52;98236.55;1681092;83;21859;-51
2021/09/24 04:48:50;;;;;;;2.53;2.03;;;;;;;9.58;84.59;98242.41;1672097;83;21108;-50
2021/09/24 04:51:17;;;;;;;1.62;1.52;;;;;;;9.58;84.62;98237.89;1703082;81;21144;-50
2021/09/24 04:53:43;;;;;;;3.30;2.15;;;;;;;9.59;84.69;98233.38;1678934;83;21093;-52
2021/09/24 04:56:11;;;;;;;6.53;2.75;;;;;;;9.60;84.74;98223.89;1663755;83;21069;-50
2021/09/24 04:58:38;;;;;;;1.92;1.52;;;;;;;9.61;84.76;98216.17;1686866;83;21107;-52
2021/09/24 05:01:04;;;;;;;3.92;2.40;;;;;;;9.63;84.79;98219.63;1685310;82;21053;-51
2021/09/24 05:03:31;;;;;;;2.17;1.98;;;;;;;9.66;84.86;98198.41;1688160;82;21135;-52
2021/09/24 05:05:57;;;;;;;1.90;1.80;;;;;;;9.69;84.82;98195.53;1688119;82;21206;-51
2021/09/24 05:08:25;;;;;;;3.33;2.42;;;;;;;9.72;84.83;98183.20;1685610;82;21072;-51
2021/09/24 05:10:51;;;;;;;2.60;2.35;;;;;;;9.74;84.82;98173.22;1689183;83;21136;-52
2021/09/24 05:13:19;;;;;;;2.67;2.47;;;;;;;9.73;84.77;98165.64;1672877;83;21077;-52
2021/09/24 05:15:46;;;;;;;4.03;2.05;;;;;;;9.72;84.74;98159.88;1668930;83;21111;-52
2021/09/24 05:18:14;;;;;;;3.77;2.17;;;;;;;9.71;84.76;98160.84;1659419;84;21062;-52
2021/09/24 05:20:42;;;;;;;2.65;1.90;;;;;;;9.72;84.87;98149.62;1724548;80;21077;-50
2021/09/24 05:23:10;;;;;;;1.82;1.72;;;;;;;9.73;84.90;98155.38;1723760;80;21105;-52
2021/09/24 05:25:37;;;;;;;2.77;1.90;;;;;;;9.73;84.92;98139.25;1724573;80;21093;-53
2021/09/24 05:28:04;;;;;;;2.50;2.12;;;;;;;9.74;84.94;98142.31;1724984;80;21094;-51
2021/09/24 05:30:30;;;;;;;2.87;1.57;;;;;;;9.75;84.99;98134.63;1730572;80;20954;-52
2021/09/24 05:32:58;;;;;;;2.42;1.70;;;;;;;9.75;85.00;98131.47;1723402;80;21011;-50
2021/09/24 05:35:24;;;;;;;2.87;2.15;;;;;;;9.75;85.03;98130.61;1659628;83;21094;-50
2021/09/24 05:37:51;;;;;;;3.25;1.80;;;;;;;9.76;85.11;98124.27;1729069;81;20994;-52
2021/09/24 05:40:17;;;;;;;1.87;1.67;;;;;;;9.77;85.13;98114.77;1670676;83;21018;-50
2021/09/24 05:42:45;;;;;;;2.22;2.05;;;;;;;9.82;85.20;98114.42;1694153;82;20876;-51
2021/09/24 05:45:14;;;;;;;1.80;1.50;;;;;;;9.84;85.17;98124.09;1730761;80;20948;-51
2021/09/24 05:47:42;;;;;;;1.70;1.60;;;;;;;9.85;85.14;98112.87;1667846;83;21100;-52
2021/09/24 05:50:13;;;;;;;2.27;1.70;;;;;;;9.86;85.10;98119.48;1668401;83;21547;-51
2021/09/24 05:52:45;;;;;;;1.45;1.35;;;;;;;9.86;85.14;98119.48;1727836;80;20908;-51
2021/09/24 05:55:13;;;;;;;1.42;1.32;;;;;;;9.88;85.15;98116.66;1663545;83;20888;-50
2021/09/24 05:57:40;;;;;;;1.70;1.50;;;;;;;9.91;85.21;98110.22;1679011;83;21089;-52
2021/09/24 06:00:09;;;;;;;2.80;1.67;;;;;;;9.94;85.22;98111.36;1725626;80;21381;-52
2021/09/24 06:02:39;;;;;;;2.05;1.80;;;;;;;9.94;85.20;98098.78;1662587;83;20978;-50
2021/09/24 06:05:06;;;;;;;1.42;1.27;;;;;;;9.95;85.12;98103.19;1728072;80;20934;-51
2021/09/24 06:07:34;;;;;;;2.37;1.60;;;;;;;9.94;85.09;98095.23;1731325;80;20880;-52
2021/09/24 06:10:00;;;;;;;1.95;1.32;;;;;;;9.93;85.09;98080.93;1733233;80;20962;-52
2021/09/24 06:12:28;;;;;;;1.32;1.22;;;;;;;9.90;85.06;98077.11;1730071;80;20946;-51
2021/09/24 06:14:57;;;;;;;1.70;1.30;;;;;;;9.87;85.19;98071.45;1728531;80;21053;-50
2021/09/24 06:17:24;;;;;;;1.40;1.12;;;;;;;9.88;85.32;98076.34;1657742;83;20917;-51
2021/09/24 06:19:52;;;;;;;1.60;1.22;;;;;;;9.92;85.35;98066.25;1708242;82;20974;-50
2021/09/24 06:22:20;;;;;;;2.85;1.20;;;;;;;9.94;85.38;98070.55;1698078;82;21399;-49
2021/09/24 06:24:46;;;;;;;1.22;1.12;;;;;;;9.97;85.36;98066.77;1696024;82;21139;-52
2021/09/24 06:27:16;;;;;;;1.40;1.10;;;;;;;9.99;85.27;98068.38;1705973;82;20875;-51
2021/09/24 06:29:47;;;;;;;2.52;1.20;;;;;;;9.98;85.23;98057.73;1703434;82;21468;-49
2021/09/24 06:32:13;;;;;;;1.20;1.10;;;;;;;9.99;85.27;98056.28;1698939;81;21404;-50
2021/09/24 06:34:40;;;;;;;1.40;1.10;;;;;;;9.99;85.23;98053.59;1698912;82;21453;-51
2021/09/24 06:37:07;;;;;;;1.25;0.90;;;;;;;9.99;85.21;98044.19;1695210;81;21845;-50
2021/09/24 06:39:33;;;;;;;1.30;1.20;;;;;;;9.99;85.22;98055.42;1698611;82;21511;-51
2021/09/24 06:41:59;;;;;;;1.65;0.90;;;;;;;10.01;85.26;98057.05;1702010;81;21084;-50
2021/09/24 06:44:25;;;;;;;2.08;1.12;;;;;;;10.02;85.28;98054.73;1703151;82;21081;-50
2021/09/24 06:46:52;;;;;;;1.45;1.20;;;;;;;10.04;85.26;98056.80;1698552;82;21135;-49
2021/09/24 06:49:23;;;;;;;2.33;0.95;;;;;;;10.06;85.30;98057.55;1701024;82;21172;-50
2021/09/24 06:51:49;;;;;;;1.67;1.57;;;;;;;10.07;85.29;98051.69;1699523;82;21544;-49
2021/09/24 06:54:16;;;;;;;1.22;1.12;;;;;;;10.06;85.29;98043.25;1701681;82;21423;-50
2021/09/24 06:56:43;;;;;;;3.65;1.30;;;;;;;10.06;85.27;98047.28;1697486;82;21681;-51
2021/09/24 06:59:09;;;;;;;1.37;1.20;;;;;;;10.06;85.32;98042.77;1698095;82;21563;-51
2021/09/24 07:01:36;;;;;;;1.85;1.20;;;;;;;10.08;85.41;98034.59;1697236;82;22092;-50
2021/09/24 07:04:03;;;;;;;2.20;1.30;;;;;;;10.09;85.55;98023.73;1702172;82;21617;-50
2021/09/24 07:06:30;;;;;;;1.45;1.20;;;;;;;10.12;85.66;98028.86;1699017;82;21117;-49
2021/09/24 07:08:57;;;;;;;1.52;1.20;;;;;;;10.17;85.69;98029.89;1698348;82;21456;-51
2021/09/24 07:11:25;;;;;;;2.58;1.15;;;;;;;10.19;85.66;98019.92;1700734;82;21372;-49
2021/09/24 07:13:52;;;;;;;2.12;1.20;;;;;;;10.21;85.69;98025.53;1697393;82;21565;-50
2021/09/24 07:16:20;;;;;;;1.35;1.25;;;;;;;10.22;85.62;98011.61;1704761;81;21160;-50
2021/09/24 07:18:46;;;;;;;1.25;1.12;;;;;;;10.23;85.67;98010.16;1725260;80;21101;-50
2021/09/24 07:21:14;;;;;;;1.30;1.15;;;;;;;10.25;85.66;98010.05;1726324;80;21085;-50
2021/09/24 07:23:40;;;;;;;1.32;1.10;;;;;;;10.29;85.65;98006.17;1722970;80;21124;-50
2021/09/24 07:26:07;;;;;;;1.10;1.00;;;;;;;10.31;85.59;98006.89;1724878;80;21113;-51
2021/09/24 07:28:34;;;;;;;2.37;1.00;;;;;;;10.32;85.58;97996.51;1724407;80;21112;-51
2021/09/24 07:31:00;;;;;;;1.47;1.10;;;;;;;10.34;85.50;98008.02;1721918;80;22481;-50
2021/09/24 07:33:26;;;;;;;2.35;1.20;;;;;;;10.33;85.43;98016.19;1722811;80;21033;-50
2021/09/24 07:35:53;;;;;;;1.45;1.35;;;;;;;10.31;85.49;98008.23;1726153;80;21057;-51
2021/09/24 07:41:00;;;;;;;3.10;1.23;;;;;;;10.34;85.49;98001.30;1861493;75;23387;-51
2021/09/24 07:43:27;;;;;;;1.20;1.10;;;;;;;10.31;85.54;98005.55;1834660;77;21076;-51
2021/09/24 07:45:56;;;;;;;1.40;1.00;;;;;;;10.30;85.56;98003.83;1833243;76;21819;-52
2021/09/24 07:48:23;;;;;;;1.65;1.55;;;;;;;10.32;85.68;98001.89;1836978;76;20996;-52
2021/09/24 07:50:49;;;;;;;1.65;1.30;;;;;;;10.35;85.75;97993.60;1834230;77;20945;-51
2021/09/24 07:53:16;;;;;;;5.92;3.95;;;;;;;10.38;85.80;97994.69;1833935;75;21041;-52
2021/09/24 07:55:42;;;;;;;2.00;1.82;;;;;;;10.44;85.92;98002.81;1799074;78;20998;-53
2021/09/24 07:58:09;;;;;;;2.17;1.55;;;;;;;10.51;85.92;97993.30;1776118;78;22678;-52
2021/09/24 08:00:36;;;;;;;2.35;1.60;;;;;;;10.58;85.87;97991.37;1763635;79;22536;-52
2021/09/24 08:03:05;;;;;;;3.30;1.40;;;;;;;10.63;85.92;97997.77;1773197;78;22192;-52
2021/09/24 08:05:31;;;;;;;4.42;1.30;;;;;;;10.68;85.83;98008.16;1746227;79;21055;-52
2021/09/24 08:07:59;;;;;;;2.42;1.10;;;;;;;10.70;85.74;98010.25;1796438;78;21040;-52
2021/09/24 08:10:25;;;;;;;1.25;1.10;;;;;;;10.70;85.72;97994.97;1767880;79;21218;-51
2021/09/24 08:12:52;;;;;;;1.80;1.52;;;;;;;10.72;85.69;97993.52;1769845;78;21068;-50
2021/09/24 08:15:19;;;;;;;1.50;1.22;;;;;;;10.74;85.59;97990.19;1769852;79;21076;-51
2021/09/24 08:17:45;;;;;;;1.60;1.05;;;;;;;10.76;85.72;97981.03;1773597;78;21060;-51
2021/09/24 08:20:14;;;;;;;1.42;1.05;;;;;;;10.80;85.71;97974.94;1769125;78;21045;-52
2021/09/24 08:22:41;;;;;;;1.37;1.07;;;;;;;10.86;85.77;97969.94;1782893;78;21144;-52
2021/09/24 08:25:09;;;;;;;1.45;1.35;;;;;;;10.92;85.85;97960.02;1775280;78;20895;-52
2021/09/24 08:27:37;;;;;;;1.30;1.10;;;;;;;10.99;85.83;97967.13;1775348;78;20936;-53
2021/09/24 08:30:05;;;;;;;1.17;1.02;;;;;;;11.04;85.94;97970.34;1780990;79;20985;-51
2021/09/24 08:32:36;;;;;;;2.65;1.32;;;;;;;11.11;86.01;97963.98;1766307;78;20915;-52
2021/09/24 08:35:00;;;;;;;4.17;0.93;;;;;;;11.19;85.92;97976.34;1781057;78;21095;-50
2021/09/24 08:37:27;;;;;;;1.30;0.85;;;;;;;11.24;85.73;97978.17;1780339;78;21065;-51
2021/09/24 08:39:53;;;;;;;1.40;0.98;;;;;;;11.27;85.65;97977.95;1752808;80;20977;-51
2021/09/24 08:42:21;;;;;;;1.17;1.07;;;;;;;11.31;85.53;97986.99;1781912;78;21361;-52
2021/09/24 08:44:49;;;;;;;0.98;0.80;;;;;;;11.37;85.45;97984.33;1782673;78;20945;-50
2021/09/24 08:47:16;;;;;;;0.80;0.70;;;;;;;11.38;85.32;97969.39;1779832;78;21448;-50
2021/09/24 08:49:43;;;;;;;0.95;0.70;;;;;;;11.41;85.21;97973.66;1755851;80;20942;-51
2021/09/24 08:52:10;;;;;;;0.95;0.70;;;;;;;11.45;85.14;97978.33;1756537;80;20958;-53
2021/09/24 08:54:37;;;;;;;0.98;0.80;;;;;;;11.49;85.09;97977.08;1754650;80;20922;-52
2021/09/24 08:57:04;;;;;;;0.90;0.80;;;;;;;11.56;85.07;97974.30;1757345;80;20955;-52
2021/09/24 08:59:31;;;;;;;1.15;0.90;;;;;;;11.61;85.08;97976.97;1749232;80;21089;-51
2021/09/24 09:02:06;;;;;;;0.75;0.75;;;;;;;11.76;84.71;97974.91;1751739;80;21012;-51
2021/09/24 09:04:37;;;;;;;1.80;1.22;;;;;;;11.76;84.71;97974.91;1751820;80;21049;-50
2021/09/24 09:07:08;;;;;;;1.17;0.90;;;;;;;11.84;84.78;97971.09;1751461;80;21088;-52
2021/09/24 09:09:36;;;;;;;1.45;0.80;;;;;;;11.91;84.76;97965.56;1753785;80;21024;-52
2021/09/24 09:12:27;;;;;;;1.17;0.68;;;;;;;12.00;84.62;97962.60;1755662;80;20918;-52
2021/09/24 09:15:03;;;;;;;1.00;0.80;;;;;;;12.02;84.53;97960.16;1755312;80;21642;-50
2021/09/24 09:17:50;;;;;;;2.77;1.10;;;;;;;12.11;84.09;97959.39;1747514;80;21567;-52
2021/09/24 09:20:24;;;;;;;4.53;2.55;;;;;;;12.19;84.07;97961.45;1747081;80;21497;-52
2021/09/24 09:23:01;;;;;;;2.75;1.65;;;;;;;12.43;83.83;97965.29;1749147;80;21401;-50
2021/09/24 09:25:40;;;;;;;1.35;1.25;;;;;;;12.43;83.83;97965.29;1764783;79;21252;-51
2021/09/24 09:28:13;;;;;;;2.08;1.57;;;;;;;12.57;83.78;97962.80;1773085;79;20886;-52
2021/09/24 09:30:42;;;;;;;1.98;0.90;;;;;;;12.68;83.32;97956.83;1758747;79;21672;-52
2021/09/24 09:33:17;;;;;;;0.95;0.70;;;;;;;12.83;83.13;97953.34;1761044;79;20952;-51
2021/09/24 09:35:59;;;;;;;1.05;0.80;;;;;;;12.89;82.43;97948.75;1760657;79;20961;-51
2021/09/24 09:38:29;;;;;;;3.33;0.70;;;;;;;12.97;82.28;97951.65;1781610;78;21125;-52
2021/09/24 09:41:02;;;;;;;4.92;0.80;;;;;;;13.10;81.85;97958.21;1783522;78;21107;-51
2021/09/24 09:43:35;;;;;;;1.00;0.60;;;;;;;13.19;81.41;97964.17;1781941;78;21028;-50
2021/09/24 09:46:10;;;;;;;2.87;0.70;;;;;;;13.29;80.83;97969.14;1749953;80;21004;-51
2021/09/24 09:48:36;;;;;;;0.70;0.65;;;;;;;13.37;80.24;97970.67;1777859;78;21084;-51
2021/09/24 09:51:04;;;;;;;1.55;0.60;;;;;;;13.45;80.36;97968.16;1754971;80;21036;-51
2021/09/24 09:53:33;;;;;;;0.93;0.62;;;;;;;13.51;79.74;97971.69;1751861;80;21045;-51
2021/09/24 09:56:02;;;;;;;1.00;0.55;;;;;;;13.55;79.12;97974.95;1783688;78;20914;-52
2021/09/24 09:58:36;;;;;;;1.55;0.50;;;;;;;13.54;78.65;97966.48;1783632;78;21359;-52
2021/09/24 10:03:54;;;;;;;0.87;0.40;;;;;;;13.61;77.61;97957.69;1777032;78;25821;-52
2021/09/24 10:06:29;;;;;;;1.72;0.40;;;;;;;13.62;77.04;97982.38;1742929;80;21057;-52
2021/09/24 10:08:58;;;;;;;1.17;0.40;;;;;;;13.71;76.04;97972.60;1737373;80;21401;-52
2021/09/24 10:11:36;;;;;;;2.45;0.40;;;;;;;13.76;74.91;97980.33;1733550;80;21038;-52
2021/09/24 10:14:10;;;;;;;1.02;0.40;;;;;;;13.81;74.54;97982.11;1740595;80;20907;-52
2021/09/24 10:16:45;;;;;;;2.77;0.40;;;;;;;13.86;73.89;97973.96;1741502;80;20954;-52
2021/09/24 10:19:12;;;;;;;;;;;;;;;13.90;73.40;97982.64;1740713;80;21462;-52
2021/09/24 10:21:38;;;;;;;0.88;0.40;;;;;;;13.95;73.16;97988.52;1733810;80;21108;-52
2021/09/24 10:24:06;;;;;;;0.85;0.30;;;;;;;13.99;72.17;97980.46;1740228;80;21057;-52
2021/09/24 10:26:39;;;;;;;0.40;0.20;;;;;;;13.99;70.78;97989.93;1742497;80;21070;-52
2021/09/24 10:29:22;;;;;;;0.40;0.20;;;;;;;13.98;69.70;97989.57;1739449;80;21732;-52
2021/09/24 10:31:50;;;;;;;0.93;0.23;;;;;;;13.98;68.51;97992.27;1696060;81;21041;-52
2021/09/24 10:34:18;;;;;;;0.42;0.20;;;;;;;13.94;67.39;97993.56;1668502;84;21682;-52
2021/09/24 10:36:50;;;;;;;0.70;0.30;;;;;;;13.93;66.79;97989.14;1667769;84;21152;-53
2021/09/24 10:39:33;;;;;;;1.42;0.20;;;;;;;13.90;66.68;97988.91;1684472;83;21248;-52
2021/09/24 10:42:26;;;;;;;0.57;0.30;;;;;;;13.94;66.83;97980.03;1682161;83;21172;-52
2021/09/24 10:45:06;;;;;;;4.90;0.30;;;;;;;14.03;66.58;97982.73;1679715;84;21101;-52
2021/09/24 10:47:52;;;;;;;1.00;0.30;;;;;;;14.11;66.81;97986.13;1682330;84;21420;-52
2021/09/24 10:50:38;;;;;;;0.72;0.40;;;;;;;14.17;66.15;97985.57;1680881;83;21079;-52
2021/09/24 10:53:23;;;;;;;0.93;0.40;;;;;;;14.18;66.04;97989.13;1683023;84;21140;-52
2021/09/24 10:55:56;;;;;;;1.12;0.40;;;;;;;14.14;65.76;97987.19;1680877;83;20922;-52
2021/09/24 10:58:33;;;;;;;1.15;0.40;;;;;;;14.11;65.52;97995.61;1679038;83;21148;-52
2021/09/24 11:01:16;;;;;;;1.90;0.30;;;;;;;14.09;65.31;97988.11;1680090;84;21157;-51
2021/09/24 11:03:56;;;;;;;0.75;0.20;;;;;;;14.06;64.97;98001.05;1682610;83;21562;-51
2021/09/24 11:06:46;;;;;;;1.85;0.20;;;;;;;14.03;64.94;98000.32;1685790;83;21087;-52
2021/09/24 11:10:00;;;;;;;1.07;0.33;;;;;;;14.12;65.08;97989.17;1774577;78;26822;-52
2021/09/24 11:12:28;;;;;;;1.95;0.30;;;;;;;14.10;64.63;97999.80;1683120;83;21612;-51
2021/09/24 11:15:13;;;;;;;1.25;0.20;;;;;;;14.11;64.62;98006.92;1691809;82;21020;-52
2021/09/24 11:17:44;;;;;;;1.55;0.30;;;;;;;14.11;64.58;98011.84;1706054;82;21358;-52
2021/09/24 11:20:31;;;;;;;4.78;0.30;;;;;;;14.06;65.23;98011.37;1703712;82;21332;-52
2021/09/24 11:23:00;;;;;;;2.90;0.30;;;;;;;13.99;65.99;98007.52;1700477;82;20989;-52
2021/09/24 11:25:29;;;;;;;1.35;0.30;;;;;;;13.88;66.95;98007.11;1707278;82;20950;-52
2021/09/24 11:27:55;;;;;;;2.17;0.30;;;;;;;13.86;67.70;98013.18;1709787;82;21475;-52
2021/09/24 11:30:27;;;;;;;1.75;0.30;;;;;;;13.87;68.63;98015.36;1703042;82;21421;-52
2021/09/24 11:32:57;;;;;;;1.95;0.30;;;;;;;13.92;69.04;98006.36;1697066;82;20918;-52
2021/09/24 11:35:43;;;;;;;0.85;0.30;;;;;;;13.99;69.63;98013.78;1681202;83;20930;-52
2021/09/24 11:38:20;;;;;;;3.35;0.30;;;;;;;14.07;69.65;98009.03;1671806;83;20985;-52
2021/09/24 11:40:55;;;;;;;1.70;0.30;;;;;;;14.18;69.44;98010.78;1684014;82;20959;-52
2021/09/24 11:43:33;;;;;;;1.55;0.28;;;;;;;14.23;69.07;98005.30;1683249;82;20942;-52
2021/09/24 11:46:10;;;;;;;0.40;0.20;;;;;;;14.26;68.87;98002.82;1686334;82;20950;-52
2021/09/24 11:48:37;;;;;;;1.17;0.30;;;;;;;14.25;68.53;98001.11;1682482;82;21093;-52
2021/09/24 11:51:20;;;;;;;0.40;0.20;;;;;;;14.27;68.13;98005.89;1679687;82;21119;-53
2021/09/24 11:53:53;;;;;;;1.30;0.30;;;;;;;14.25;67.73;97995.20;1678604;82;21077;-51
2021/09/24 11:56:33;;;;;;;1.15;0.20;;;;;;;14.25;67.22;98010.58;1680970;82;21108;-52
2021/09/24 11:59:02;;;;;;;2.45;0.30;;;;;;;14.23;66.61;98004.44;1683970;82;20953;-51